createdAt,value
2018-04-16T00:00:01.338Z,5.00
2018-04-16T00:02:29.447Z,5.00
2018-04-16T00:04:57.527Z,6.00
2018-04-16T00:07:25.641Z,6.90
2018-04-16T00:09:54.512Z,7.77
2018-04-16T00:12:22.640Z,5.63
2018-04-16T00:14:50.786Z,6.70
2018-04-16T00:17:18.885Z,7.17
2018-04-16T00:19:46.968Z,8.73
2018-04-16T00:22:15.061Z,7.27
2018-04-16T00:24:43.919Z,7.87
2018-04-16T00:27:12.095Z,7.80
2018-04-16T00:29:40.192Z,7.70
2018-04-16T00:32:13.942Z,6.70
2018-04-16T00:34:47.830Z,6.63
2018-04-16T00:37:21.552Z,6.60
2018-04-16T00:39:55.477Z,6.63
2018-04-16T00:42:29.352Z,6.30
2018-04-16T00:45:03.213Z,7.20
2018-04-16T00:47:37.059Z,6.50
2018-04-16T00:50:10.943Z,5.43
2018-04-16T00:52:44.824Z,5.93
2018-04-16T00:55:19.447Z,5.93
2018-04-16T00:57:54.057Z,6.10
2018-04-16T01:00:27.848Z,5.80
2018-04-16T01:03:01.559Z,7.03
2018-04-16T01:05:35.299Z,6.73
2018-04-16T01:08:09.189Z,6.67
2018-04-16T01:10:43.053Z,5.87
2018-04-16T01:13:16.985Z,6.60
2018-04-16T01:15:50.838Z,6.40
2018-04-16T01:18:25.444Z,5.97
2018-04-16T01:23:58.857Z,5.90
2018-04-16T01:26:32.766Z,6.43
2018-04-16T01:29:06.571Z,7.33
2018-04-16T01:31:40.359Z,6.20
2018-04-16T01:34:14.064Z,7.70
2018-04-16T01:36:47.860Z,6.67
2018-04-16T01:39:21.544Z,6.73
2018-04-16T01:41:55.323Z,7.17
2018-04-16T01:44:29.039Z,7.20
2018-04-16T01:47:02.751Z,7.40
2018-04-16T01:49:36.603Z,6.70
2018-04-16T01:55:16.097Z,7.97
2018-04-16T01:57:49.863Z,6.93
2018-04-16T02:00:23.687Z,6.77
2018-04-16T02:02:57.550Z,6.23
2018-04-16T02:05:31.358Z,5.90
2018-04-16T02:08:05.825Z,6.20
2018-04-16T02:10:39.631Z,6.40
2018-04-16T02:13:13.364Z,6.20
2018-04-16T02:15:47.167Z,6.53
2018-04-16T02:18:20.987Z,7.30
2018-04-16T02:20:54.774Z,5.90
2018-04-16T02:23:28.488Z,7.40
2018-04-16T02:26:02.166Z,7.83
2018-04-16T02:28:35.938Z,6.50
2018-04-16T02:31:10.617Z,9.47
2018-04-16T02:33:44.269Z,6.97
2018-04-16T02:36:18.075Z,6.17
2018-04-16T02:38:51.847Z,6.00
2018-04-16T02:41:25.494Z,6.67
2018-04-16T02:43:59.366Z,6.47
2018-04-16T02:46:33.107Z,7.43
2018-04-16T02:49:06.804Z,5.87
2018-04-16T02:51:41.284Z,6.57
2018-04-16T02:54:15.146Z,7.23
2018-04-16T02:56:49.619Z,8.97
2018-04-16T02:59:23.410Z,6.63
2018-04-16T03:01:57.946Z,9.77
2018-04-16T03:04:32.560Z,6.10
2018-04-16T03:07:06.298Z,7.37
2018-04-16T03:09:39.889Z,6.87
2018-04-16T03:12:13.582Z,7.67
2018-04-16T03:14:47.346Z,7.50
2018-04-16T03:20:25.820Z,6.67
2018-04-16T03:23:00.256Z,10.27
2018-04-16T03:25:34.950Z,8.47
2018-04-16T03:28:08.667Z,7.90
2018-04-16T03:30:42.362Z,7.50
2018-04-16T03:33:16.242Z,8.60
2018-04-16T03:35:50.703Z,7.67
2018-04-16T03:38:24.378Z,8.33
2018-04-16T03:40:58.062Z,8.53
2018-04-16T03:43:31.881Z,8.87
2018-04-16T03:46:05.759Z,7.87
2018-04-16T03:48:39.445Z,8.43
2018-04-16T03:51:26.784Z,9.17
2018-04-16T03:53:54.825Z,7.20
2018-04-16T03:56:22.878Z,8.90
2018-04-16T03:58:50.920Z,9.00
2018-04-16T04:01:18.964Z,7.87
2018-04-16T04:03:47.009Z,7.17
2018-04-16T04:06:15.043Z,8.73
2018-04-16T04:08:43.091Z,6.87
2018-04-16T04:11:11.913Z,9.50
2018-04-16T04:13:39.953Z,8.40
2018-04-16T04:16:07.990Z,7.77
2018-04-16T04:18:36.050Z,6.20
2018-04-16T04:21:04.107Z,7.03
2018-04-16T04:26:43.806Z,29.67
2018-04-16T04:29:24.481Z,10.47
2018-04-16T04:31:52.522Z,7.27
2018-04-16T04:34:20.552Z,6.77
2018-04-16T04:36:49.370Z,8.20
2018-04-16T04:39:18.181Z,9.10
2018-04-16T04:41:46.218Z,8.10
2018-04-16T04:44:14.273Z,6.87
2018-04-16T04:46:42.310Z,8.13
2018-04-16T04:49:11.117Z,6.57
2018-04-16T04:51:39.924Z,6.67
2018-04-16T04:54:08.736Z,7.20
2018-04-16T04:56:36.798Z,6.03
2018-04-16T04:59:11.678Z,7.30
2018-04-16T05:01:39.722Z,7.53
2018-04-16T05:04:08.538Z,7.67
2018-04-16T05:06:37.358Z,8.03
2018-04-16T05:09:06.156Z,6.53
2018-04-16T05:11:34.193Z,7.27
2018-04-16T05:14:02.246Z,6.67
2018-04-16T05:16:30.292Z,7.53
2018-04-16T05:18:59.112Z,10.07
2018-04-16T05:21:27.153Z,6.37
2018-04-16T05:23:55.209Z,6.90
2018-04-16T05:26:23.250Z,9.10
2018-04-16T05:28:51.302Z,6.83
2018-04-16T05:31:19.347Z,6.93
2018-04-16T05:33:47.401Z,6.23
2018-04-16T05:36:15.445Z,8.03
2018-04-16T05:38:43.495Z,8.77
2018-04-16T05:41:11.538Z,8.17
2018-04-16T05:43:40.347Z,5.00
2018-04-16T05:46:08.389Z,6.33
2018-04-16T05:48:36.542Z,8.43
2018-04-16T05:51:04.587Z,7.53
2018-04-16T05:53:33.405Z,6.07
2018-04-16T05:56:01.483Z,4.40
2018-04-16T05:58:30.292Z,5.80
2018-04-16T06:00:59.110Z,6.40
2018-04-16T06:03:27.170Z,6.47
2018-04-16T06:05:55.978Z,6.43
2018-04-16T06:08:24.013Z,6.13
2018-04-16T06:10:52.063Z,8.50
2018-04-16T06:13:20.112Z,6.27
2018-04-16T06:15:48.934Z,9.13
2018-04-16T06:18:16.975Z,6.27
2018-04-16T06:20:45.024Z,4.70
2018-04-16T06:23:13.089Z,5.47
2018-04-16T06:25:41.138Z,6.10
2018-04-16T06:28:09.172Z,4.50
2018-04-16T06:30:37.227Z,6.30
2018-04-16T06:33:05.280Z,6.27
2018-04-16T06:35:34.097Z,4.73
2018-04-16T06:38:02.896Z,5.47
2018-04-16T06:40:31.739Z,5.63
2018-04-16T06:42:59.875Z,8.47
2018-04-16T06:45:27.926Z,4.50
2018-04-16T06:47:56.112Z,4.50
2018-04-16T06:50:24.214Z,6.03
2018-04-16T06:52:52.281Z,9.70
2018-04-16T06:55:20.362Z,7.27
2018-04-16T06:57:48.465Z,5.77
2018-04-16T07:00:16.581Z,8.43
2018-04-16T07:02:44.680Z,5.53
2018-04-16T07:05:13.580Z,4.00
2018-04-16T07:07:42.492Z,5.47
2018-04-16T07:10:11.386Z,6.27
2018-04-16T07:12:39.476Z,5.27
2018-04-16T07:15:07.580Z,4.87
2018-04-16T07:17:35.656Z,4.63
2018-04-16T07:20:03.768Z,5.00
2018-04-16T07:22:31.856Z,4.30
2018-04-16T07:24:59.990Z,3.77
2018-04-16T07:27:28.928Z,5.67
2018-04-16T07:29:57.019Z,8.53
2018-04-16T07:32:25.199Z,5.63
2018-04-16T07:34:53.307Z,4.10
2018-04-16T07:37:21.478Z,5.30
2018-04-16T07:39:49.570Z,5.43
2018-04-16T07:42:17.668Z,4.53
2018-04-16T07:44:45.768Z,3.60
2018-04-16T07:47:13.924Z,3.47
2018-04-16T07:49:42.022Z,4.57
2018-04-16T07:52:10.092Z,5.43
2018-04-16T07:54:38.159Z,3.50
2018-04-16T07:57:06.243Z,3.10
2018-04-16T07:59:34.350Z,4.23
2018-04-16T08:02:02.552Z,3.50
2018-04-16T08:04:30.683Z,4.75
2018-04-16T08:06:58.787Z,4.15
2018-04-16T08:09:26.879Z,3.22
2018-04-16T08:11:54.970Z,3.65
2018-04-16T08:14:23.091Z,3.25
2018-04-16T08:16:51.192Z,3.35
2018-04-16T08:19:20.070Z,3.17
2018-04-16T08:21:48.160Z,5.65
2018-04-16T08:24:16.254Z,6.15
2018-04-16T08:26:44.352Z,3.55
2018-04-16T08:29:13.216Z,3.42
2018-04-16T08:31:41.303Z,2.70
2018-04-16T08:34:09.410Z,2.40
2018-04-16T08:36:37.542Z,2.78
2018-04-16T08:39:05.644Z,2.87
2018-04-16T08:41:33.715Z,2.95
2018-04-16T08:44:01.832Z,3.22
2018-04-16T08:46:29.935Z,3.05
2018-04-16T08:48:58.024Z,2.40
2018-04-16T08:51:26.881Z,3.40
2018-04-16T08:53:54.953Z,4.60
2018-04-16T08:56:23.031Z,2.83
2018-04-16T08:58:51.115Z,3.28
2018-04-16T09:01:19.217Z,3.53
2018-04-16T09:03:47.308Z,2.65
2018-04-16T09:06:15.413Z,4.00
2018-04-16T09:08:43.591Z,2.75
2018-04-16T09:11:11.670Z,3.60
2018-04-16T09:13:39.771Z,3.10
2018-04-16T09:16:07.869Z,3.40
2018-04-16T09:18:35.979Z,3.00
2018-04-16T09:21:04.833Z,2.73
2018-04-16T09:23:32.922Z,3.27
2018-04-16T09:26:01.011Z,3.90
2018-04-16T09:28:29.066Z,2.53
2018-04-16T09:30:57.171Z,2.53
2018-04-16T09:33:25.327Z,2.58
2018-04-16T09:35:53.421Z,3.65
2018-04-16T09:38:21.511Z,2.17
2018-04-16T09:40:49.602Z,2.33
2018-04-16T09:43:17.710Z,2.35
2018-04-16T09:45:45.810Z,3.05
2018-04-16T09:48:13.895Z,2.35
2018-04-16T09:50:41.960Z,2.00
2018-04-16T09:53:10.116Z,2.03
2018-04-16T09:55:38.183Z,3.42
2018-04-16T09:58:06.308Z,2.17
2018-04-16T10:00:40.013Z,2.37
2018-04-16T10:03:08.139Z,2.93
2018-04-16T10:05:37.093Z,3.60
2018-04-16T10:08:05.162Z,2.45
2018-04-16T10:10:33.239Z,2.35
2018-04-16T10:13:01.347Z,4.70
2018-04-16T10:15:29.420Z,3.03
2018-04-16T10:17:57.601Z,2.78
2018-04-16T10:20:25.704Z,1.73
2018-04-16T10:22:53.792Z,6.00
2018-04-16T10:25:21.907Z,2.33
2018-04-16T10:27:49.988Z,1.65
2018-04-16T10:30:18.128Z,2.25
2018-04-16T10:32:46.220Z,2.10
2018-04-16T10:35:14.348Z,2.00
2018-04-16T10:37:42.427Z,2.60
2018-04-16T10:40:10.543Z,2.45
2018-04-16T10:42:39.408Z,2.80
2018-04-16T10:45:07.498Z,2.80
2018-04-16T10:47:35.592Z,2.27
2018-04-16T10:50:03.685Z,3.05
2018-04-16T10:52:32.528Z,2.50
2018-04-16T10:55:00.617Z,2.67
2018-04-16T10:57:28.681Z,2.00
2018-04-16T10:59:56.769Z,1.50
2018-04-16T11:02:24.849Z,1.62
2018-04-16T11:04:53.019Z,2.12
2018-04-16T11:07:21.905Z,1.60
2018-04-16T11:09:50.014Z,2.78
2018-04-16T11:12:18.863Z,3.60
2018-04-16T11:14:46.963Z,2.55
2018-04-16T11:17:15.058Z,4.18
2018-04-16T11:19:43.149Z,2.80
2018-04-16T11:22:11.284Z,3.50
2018-04-16T11:24:39.397Z,2.12
2018-04-16T11:27:07.494Z,1.95
2018-04-16T11:29:35.580Z,1.90
2018-04-16T11:32:03.711Z,3.50
2018-04-16T11:34:31.827Z,2.20
2018-04-16T11:36:59.921Z,1.90
2018-04-16T11:39:28.016Z,2.85
2018-04-16T11:41:56.887Z,1.80
2018-04-16T11:44:25.009Z,3.92
2018-04-16T11:46:53.090Z,1.80
2018-04-16T11:49:21.179Z,2.83
2018-04-16T11:51:49.329Z,2.17
2018-04-16T11:54:17.427Z,3.20
2018-04-16T11:56:45.565Z,1.67
2018-04-16T11:59:15.392Z,2.23
2018-04-16T12:01:44.879Z,2.10
2018-04-16T12:04:12.996Z,2.03
2018-04-16T12:06:41.852Z,2.30
2018-04-16T12:09:09.953Z,3.10
2018-04-16T12:11:38.049Z,3.17
2018-04-16T12:14:06.896Z,1.60
2018-04-16T12:16:35.837Z,1.83
2018-04-16T12:19:03.857Z,1.62
2018-04-16T12:21:32.701Z,1.87
2018-04-16T12:24:00.792Z,1.48
2018-04-16T12:26:28.894Z,1.83
2018-04-16T12:28:56.982Z,1.87
2018-04-16T12:31:25.067Z,1.80
2018-04-16T12:33:53.140Z,1.62
2018-04-16T12:36:21.252Z,2.90
2018-04-16T12:38:50.109Z,1.67
2018-04-16T12:41:18.173Z,3.05
2018-04-16T12:43:46.278Z,4.07
2018-04-16T12:46:14.343Z,2.90
2018-04-16T12:48:42.487Z,2.10
2018-04-16T12:51:10.617Z,2.10
2018-04-16T12:53:38.686Z,4.43
2018-04-16T12:56:06.820Z,2.20
2018-04-16T12:58:34.940Z,4.20
2018-04-16T13:01:03.836Z,2.40
2018-04-16T13:03:31.968Z,2.00
2018-04-16T13:06:00.038Z,2.50
2018-04-16T13:08:28.146Z,2.17
2018-04-16T13:10:56.216Z,2.83
2018-04-16T13:13:24.310Z,4.83
2018-04-16T13:15:52.373Z,3.13
2018-04-16T13:18:20.471Z,3.83
2018-04-16T13:20:48.539Z,3.47
2018-04-16T13:23:16.621Z,3.30
2018-04-16T13:25:45.488Z,2.70
2018-04-16T13:28:13.584Z,2.57
2018-04-16T13:30:41.660Z,4.03
2018-04-16T13:33:09.819Z,4.57
2018-04-16T13:35:37.912Z,5.33
2018-04-16T13:38:05.989Z,3.60
2018-04-16T13:40:34.083Z,3.30
2018-04-16T13:43:02.163Z,3.40
2018-04-16T13:45:30.260Z,2.50
2018-04-16T13:47:58.360Z,2.57
2018-04-16T13:50:26.435Z,4.00
2018-04-16T13:52:54.526Z,2.93
2018-04-16T13:55:22.605Z,3.00
2018-04-16T13:57:50.738Z,2.15
2018-04-16T14:00:18.845Z,2.53
2018-04-16T14:02:46.925Z,3.42
2018-04-16T14:05:15.025Z,3.12
2018-04-16T14:07:43.134Z,2.00
2018-04-16T14:10:11.220Z,1.85
2018-04-16T14:12:39.307Z,2.62
2018-04-16T14:15:08.166Z,2.10
2018-04-16T14:17:36.268Z,3.47
2018-04-16T14:20:04.362Z,2.10
2018-04-16T14:22:32.430Z,2.17
2018-04-16T14:25:00.517Z,3.37
2018-04-16T14:27:28.663Z,2.40
2018-04-16T14:29:56.806Z,2.60
2018-04-16T14:32:24.866Z,4.20
2018-04-16T14:34:52.965Z,2.67
2018-04-16T14:37:21.060Z,2.40
2018-04-16T14:39:49.151Z,3.20
2018-04-16T14:42:17.219Z,3.27
2018-04-16T14:44:45.339Z,2.70
2018-04-16T14:47:14.200Z,3.43
2018-04-16T14:49:42.287Z,2.50
2018-04-16T14:52:10.377Z,3.10
2018-04-16T14:54:38.464Z,3.23
2018-04-16T14:57:06.538Z,2.57
2018-04-16T14:59:34.628Z,2.77
2018-04-16T15:02:02.712Z,2.60
2018-04-16T15:04:30.791Z,2.00
2018-04-16T15:06:58.871Z,4.20
2018-04-16T15:09:26.957Z,2.43
2018-04-16T15:11:55.064Z,3.87
2018-04-16T15:14:24.661Z,2.23
2018-04-16T15:16:52.775Z,3.50
2018-04-16T15:19:20.843Z,2.33
2018-04-16T15:21:49.011Z,1.97
2018-04-16T15:24:17.083Z,3.63
2018-04-16T15:26:45.177Z,1.80
2018-04-16T15:29:13.271Z,2.37
2018-04-16T15:31:41.341Z,3.00
2018-04-16T15:34:09.445Z,1.83
2018-04-16T15:36:37.597Z,2.57
2018-04-16T15:39:05.672Z,3.27
2018-04-16T15:41:33.750Z,1.80
2018-04-16T15:44:01.839Z,1.90
2018-04-16T15:46:29.923Z,1.83
2018-04-16T15:48:58.054Z,3.00
2018-04-16T15:51:26.137Z,2.60
2018-04-16T15:53:54.206Z,2.20
2018-04-16T15:56:22.320Z,4.00
2018-04-16T15:58:50.443Z,1.67
2018-04-16T16:01:18.556Z,2.53
2018-04-16T16:03:46.640Z,3.97
2018-04-16T16:06:14.747Z,2.37
2018-04-16T16:08:43.585Z,3.30
2018-04-16T16:11:12.440Z,1.53
2018-04-16T16:13:40.555Z,2.07
2018-04-16T16:16:10.228Z,1.70
2018-04-16T16:18:38.351Z,2.00
2018-04-16T16:21:06.457Z,2.23
2018-04-16T16:23:35.312Z,1.60
2018-04-16T16:26:03.401Z,2.27
2018-04-16T16:28:31.528Z,1.93
2018-04-16T16:31:00.396Z,2.67
2018-04-16T16:33:28.503Z,2.20
2018-04-16T16:35:56.578Z,1.80
2018-04-16T16:38:24.663Z,2.17
2018-04-16T16:40:52.815Z,2.00
2018-04-16T16:43:20.904Z,1.97
2018-04-16T16:45:49.016Z,2.20
2018-04-16T16:48:17.079Z,2.03
2018-04-16T16:50:45.152Z,4.17
2018-04-16T16:53:13.255Z,1.90
2018-04-16T16:55:41.326Z,1.63
2018-04-16T16:58:09.426Z,3.43
2018-04-16T17:00:37.523Z,1.77
2018-04-16T17:03:05.623Z,2.47
2018-04-16T17:05:33.690Z,2.47
2018-04-16T17:08:01.799Z,1.83
2018-04-16T17:10:29.846Z,2.70
2018-04-16T17:12:57.936Z,2.00
2018-04-16T17:15:26.035Z,2.63
2018-04-16T17:17:55.708Z,3.23
2018-04-16T17:20:23.791Z,2.53
2018-04-16T17:22:51.898Z,4.90
2018-04-16T17:25:20.004Z,2.87
2018-04-16T17:27:48.092Z,2.10
2018-04-16T17:30:16.184Z,2.30
2018-04-16T17:32:44.301Z,2.17
2018-04-16T17:35:13.150Z,2.40
2018-04-16T17:37:41.308Z,4.10
2018-04-16T17:40:09.443Z,2.53
2018-04-16T17:42:37.555Z,3.13
2018-04-16T17:45:06.407Z,3.00
2018-04-16T17:47:34.506Z,3.03
2018-04-16T17:50:02.653Z,4.47
2018-04-16T17:52:30.712Z,3.80
2018-04-16T17:54:58.836Z,2.23
2018-04-16T17:57:26.914Z,2.20
2018-04-16T17:59:55.019Z,4.33
2018-04-16T18:02:23.104Z,2.70
2018-04-16T18:04:51.219Z,2.20
2018-04-16T18:07:20.089Z,5.77
2018-04-16T18:09:48.214Z,2.33
2018-04-16T18:12:16.267Z,4.60
2018-04-16T18:14:44.376Z,2.43
2018-04-16T18:17:12.446Z,2.87
2018-04-16T18:19:40.550Z,3.27
2018-04-16T18:22:09.427Z,2.40
2018-04-16T18:24:37.536Z,1.90
2018-04-16T18:27:06.406Z,4.70
2018-04-16T18:29:34.508Z,2.43
2018-04-16T18:32:04.118Z,4.43
2018-04-16T18:34:32.217Z,3.33
2018-04-16T18:37:01.858Z,2.90
2018-04-16T18:39:30.709Z,4.03
2018-04-16T18:41:58.863Z,3.93
2018-04-16T18:44:27.005Z,4.03
2018-04-16T18:46:55.095Z,2.83
2018-04-16T18:49:23.960Z,4.27
2018-04-16T18:51:52.071Z,2.40
2018-04-16T18:54:20.150Z,2.23
2018-04-16T18:56:48.379Z,3.33
2018-04-16T18:59:17.205Z,6.23
2018-04-16T19:01:45.302Z,3.10
2018-04-16T19:04:13.401Z,3.80
2018-04-16T19:06:41.552Z,5.10
2018-04-16T19:09:09.682Z,6.17
2018-04-16T19:11:37.759Z,6.80
2018-04-16T19:14:05.849Z,7.73
2018-04-16T19:16:33.923Z,3.93
2018-04-16T19:19:02.007Z,4.53
2018-04-16T19:21:35.836Z,9.23
2018-04-16T19:24:03.918Z,8.67
2018-04-16T19:26:32.014Z,6.60
2018-04-16T19:29:00.120Z,4.93
2018-04-16T19:31:28.995Z,4.80
2018-04-16T19:34:02.707Z,4.07
2018-04-16T19:36:30.897Z,5.90
2018-04-16T19:38:59.026Z,4.60
2018-04-16T19:44:27.762Z,6.33
2018-04-16T19:46:56.584Z,5.53
2018-04-16T19:49:30.394Z,5.20
2018-04-16T19:51:58.437Z,5.70
2018-04-16T19:54:26.502Z,3.27
2018-04-16T19:57:00.145Z,4.83
2018-04-16T19:59:28.173Z,4.37
2018-04-16T20:02:01.903Z,4.07
2018-04-16T20:04:29.939Z,2.77
2018-04-16T20:06:58.767Z,3.87
2018-04-16T20:09:26.811Z,4.40
2018-04-16T20:11:54.860Z,3.50
2018-04-16T20:14:22.905Z,4.50
2018-04-16T20:16:50.948Z,6.00
2018-04-16T20:19:18.995Z,10.50
2018-04-16T20:21:47.068Z,22.23
2018-04-16T20:24:15.105Z,13.83
2018-04-16T20:26:43.147Z,5.80
2018-04-16T20:29:11.187Z,6.63
2018-04-16T20:31:40.002Z,6.13
2018-04-16T20:34:08.822Z,7.87
2018-04-16T20:36:36.875Z,5.07
2018-04-16T20:39:06.459Z,4.30
2018-04-16T20:41:34.506Z,4.90
2018-04-16T20:44:02.553Z,4.87
2018-04-16T20:46:30.594Z,11.43
2018-04-16T20:48:58.637Z,4.60
2018-04-16T20:51:27.450Z,3.97
2018-04-16T20:53:55.498Z,3.17
2018-04-16T20:56:23.531Z,4.57
2018-04-16T20:58:51.581Z,4.20
2018-04-16T21:01:20.654Z,3.63
2018-04-16T21:03:48.707Z,3.67
2018-04-16T21:06:16.749Z,3.23
2018-04-16T21:08:44.806Z,4.33
2018-04-16T21:11:12.840Z,3.67
2018-04-16T21:13:40.883Z,3.57
2018-04-16T21:16:08.926Z,3.50
2018-04-16T21:18:36.979Z,3.60
2018-04-16T21:21:05.783Z,3.00
2018-04-16T21:23:34.613Z,3.90
2018-04-16T21:26:02.646Z,4.13
2018-04-16T21:28:30.718Z,4.30
2018-04-16T21:30:58.761Z,4.67
2018-04-16T21:33:26.804Z,5.80
2018-04-16T21:35:54.843Z,5.23
2018-04-16T21:38:22.896Z,4.87
2018-04-16T21:40:50.936Z,4.47
2018-04-16T21:43:19.018Z,2.93
2018-04-16T21:45:47.087Z,2.43
2018-04-16T21:48:15.163Z,5.13
2018-04-16T21:50:43.223Z,3.63
2018-04-16T21:53:11.267Z,3.97
2018-04-16T21:55:39.315Z,4.70
2018-04-16T21:58:07.376Z,3.43
2018-04-16T22:00:35.419Z,5.50
2018-04-16T22:03:03.461Z,3.20
2018-04-16T22:05:31.499Z,2.90
2018-04-16T22:08:00.308Z,3.40
2018-04-16T22:10:29.134Z,4.60
2018-04-16T22:12:57.154Z,5.47
2018-04-16T22:15:25.201Z,3.77
2018-04-16T22:17:53.234Z,3.73
2018-04-16T22:20:21.295Z,4.87
2018-04-16T22:22:49.325Z,3.50
2018-04-16T22:25:18.186Z,4.20
2018-04-16T22:27:46.284Z,4.93
2018-04-16T22:30:14.387Z,4.47
2018-04-16T22:32:43.252Z,4.40
2018-04-16T22:35:11.351Z,4.07
2018-04-16T22:37:39.450Z,4.97
2018-04-16T22:40:08.288Z,6.37
2018-04-16T22:42:36.403Z,4.60
2018-04-16T22:45:04.493Z,4.90
2018-04-16T22:47:32.579Z,5.50
2018-04-16T22:50:00.683Z,5.30
2018-04-16T22:52:28.747Z,4.27
2018-04-16T22:54:56.852Z,5.20
2018-04-16T22:57:24.987Z,7.40
2018-04-16T22:59:53.096Z,4.97
2018-04-16T23:02:21.191Z,6.50
2018-04-16T23:04:49.271Z,5.03
2018-04-16T23:07:17.336Z,4.13
2018-04-16T23:09:45.480Z,2.97
2018-04-16T23:12:14.364Z,5.37
2018-04-16T23:14:42.501Z,5.90
2018-04-16T23:17:10.584Z,4.50
2018-04-16T23:19:38.684Z,5.67
2018-04-16T23:22:06.784Z,5.40
2018-04-16T23:24:34.880Z,7.77
2018-04-16T23:27:03.020Z,6.93
2018-04-16T23:29:31.123Z,5.53
2018-04-16T23:31:59.270Z,5.97
2018-04-16T23:34:28.110Z,5.23
2018-04-16T23:36:56.230Z,6.23
2018-04-16T23:39:24.343Z,5.37
2018-04-16T23:41:53.218Z,4.90
2018-04-16T23:44:21.311Z,4.30
2018-04-16T23:46:49.398Z,4.70
2018-04-16T23:49:17.499Z,4.70
2018-04-16T23:51:46.370Z,6.77
2018-04-16T23:54:14.473Z,6.37
2018-04-16T23:56:42.587Z,3.87
2018-04-16T23:59:10.693Z,4.13
